Terminal Aerodrome Forecast
Issued by NWS Oklahoma City, OK

Home | Current Version | Previous Version | Text Only | Print | Product List | Glossary On
Versions: 1 2 3 4 5 6 7 8 9 10 11 12 13 14 15 16 17 18 19 20 21 22 23 24 25 26 27
000
FTUS44 KOUN 062320
TAFOUN
TAF
KOUN 062320Z 0700/0724 18015G23KT P6SM SCT035
     FM070100 17010KT P6SM FEW060 OVC250
     FM070300 VRB10G25KT 6SM -TSRA BR BKN015 BKN070CB
     FM070700 VRB06KT 5SM SHRA BR BKN015 OVC070
     FM071200 01010KT 5SM -SHRA BR OVC008
     FM072000 06010KT 4SM +SHRA BR OVC006=

USA.gov is the U.S. government's official web portal to all federal, state and local government web resources and services.